CDT,Max TemperatureF,Mean TemperatureF,Min TemperatureF,Max Dew PointF,MeanDew PointF,Min DewpointF,Max Humidity, Mean Humidity, Min Humidity, Max Sea Level PressureIn, Mean Sea Level PressureIn, Min Sea Level PressureIn, Max VisibilityMiles, Mean VisibilityMiles, Min VisibilityMiles, Max Wind SpeedMPH, Mean Wind SpeedMPH, Max Gust SpeedMPH,PrecipitationIn, CloudCover, Events, WindDirDegrees
2012-10-1,71,64,57,55,54,52,88,72,53,29.87,29.83,29.79,10,10,10,12,3,,0.05,0,,337
2012-10-2,73,62,48,54,49,45,94,69,38,29.97,29.92,29.86,10,10,1,9,2,,0.04,0,,332
2012-10-3,78,61,44,54,50,45,100,72,36,30.05,29.99,29.95,10,10,2,15,1,18,0.04,0,,196
2012-10-4,82,68,55,61,56,52,94,70,45,30.17,30.12,30.05,10,10,10,14,2,17,0.03,1,,141
2012-10-5,62,52,42,54,46,36,94,83,72,30.24,30.15,30.10,10,9,4,15,6,24,0.01,7,,9
2012-10-6,48,42,35,37,35,34,93,77,58,30.32,30.27,30.23,10,10,7,12,6,16,0.00,3,,33
2012-10-7,53,42,32,37,33,30,100,74,44,30.34,30.28,30.21,10,10,10,7,1,,0.02,1,,1
2012-10-8,60,46,32,43,36,32,100,79,42,30.26,30.18,30.07,10,7,0,10,1,16,0.01,2,Fog,193
2012-10-9,62,50,39,54,46,37,100,82,59,30.09,30.00,29.90,10,9,1,17,3,26,0.01,4,,164
2012-10-10,68,55,42,54,42,36,100,61,30,30.29,30.19,30.09,10,10,5,10,4,16,0.00,3,,67
2012-10-11,73,64,55,61,51,41,94,68,51,30.18,30.14,30.07,10,10,7,8,4,,0.00,7,,138
2012-10-12,66,63,60,64,61,59,100,94,83,30.27,30.16,30.11,10,8,0,16,4,26,0.01,4,Fog,125
2012-10-13,73,66,60,66,63,61,100,90,73,30.09,29.96,29.75,10,7,0,18,8,29,0.01,4,Fog,155
2012-10-14,73,60,48,63,53,45,100,74,36,30.09,29.95,29.76,10,10,3,14,7,22,0.89,1,,263
2012-10-15,78,60,42,52,48,43,100,69,32,30.09,30.02,29.94,10,9,1,9,1,,0.74,0,,211
2012-10-16,77,62,48,54,47,45,87,60,32,29.94,29.81,29.65,10,10,10,16,5,25,0.00,0,,173
2012-10-17,73,62,44,63,54,39,88,77,45,29.81,29.61,29.51,10,10,10,24,8,29,0.00,4,,184
2012-10-18,66,52,39,41,32,25,100,50,22,29.92,29.85,29.81,10,9,4,25,6,36,0.00,1,,281
2012-10-19,64,50,37,39,33,28,93,50,32,29.91,29.87,29.83,10,9,5,18,8,25,0.00,1,,284
2012-10-20,78,56,35,52,42,34,100,68,33,29.89,29.84,29.76,10,10,10,10,2,17,0.00,0,,156
2012-10-21,78,69,60,66,61,52,83,74,64,29.89,29.84,29.80,10,10,10,16,7,24,0.00,5,,148
2012-10-22,77,72,68,66,64,63,88,76,65,29.97,29.93,29.89,10,10,10,18,9,25,0.02,3,,171
2012-10-23,73,70,68,64,63,61,83,76,73,29.96,29.92,29.87,10,10,10,15,10,23,0.00,5,,165
2012-10-24,80,72,64,63,61,55,88,71,45,29.98,29.91,29.82,10,10,10,18,8,25,0.00,1,,166
2012-10-25,69,56,44,63,52,36,100,82,71,30.19,29.96,29.80,10,10,4,23,12,29,0.01,5,,242
2012-10-26,50,42,32,36,33,30,93,69,50,30.36,30.30,30.19,10,10,10,17,11,28,0.00,3,,11
2012-10-27,53,42,30,32,30,28,100,73,41,30.36,30.29,30.21,10,10,10,10,3,9,0.00,0,,6
2012-10-28,55,40,26,34,30,27,100,71,36,30.32,30.27,30.22,10,10,7,8,1,,0.00,0,,18
2012-10-29,60,44,28,36,31,28,100,69,31,30.34,30.25,30.13,10,10,10,5,0,,0.00,0,,149
2012-10-30,69,50,32,41,36,32,100,67,31,30.13,30.02,29.92,10,10,10,8,1,,0.00,0,,215
2012-10-31,69,55,41,41,38,34,87,60,31,30.07,30.00,29.93,10,10,10,8,1,,0.00,0,,15